sensor_id;sensor_type;location;lat;lon;timestamp;P1;durP1;ratioP1;P2;durP2;ratioP2
10174;SDS011;18221;38.704;0.152;2022-09-03T00:08:26;10.13;;;3.43;;
10174;SDS011;18221;38.704;0.152;2022-09-03T00:11:02;11.73;;;3.80;;
10174;SDS011;18221;38.704;0.152;2022-09-03T00:13:43;10.63;;;3.77;;
10174;SDS011;18221;38.704;0.152;2022-09-03T00:16:17;11.20;;;3.90;;
10174;SDS011;18221;38.704;0.152;2022-09-03T00:18:51;11.13;;;3.50;;
10174;SDS011;18221;38.704;0.152;2022-09-03T00:21:29;7.70;;;3.83;;
10174;SDS011;18221;38.704;0.152;2022-09-03T00:24:07;9.77;;;3.80;;
10174;SDS011;18221;38.704;0.152;2022-09-03T00:26:43;9.57;;;3.57;;
10174;SDS011;18221;38.704;0.152;2022-09-03T00:29:19;11.43;;;3.60;;
10174;SDS011;18221;38.704;0.152;2022-09-03T00:31:52;11.30;;;3.83;;
10174;SDS011;18221;38.704;0.152;2022-09-03T00:34:28;12.53;;;3.60;;
10174;SDS011;18221;38.704;0.152;2022-09-03T00:37:03;10.33;;;3.50;;
10174;SDS011;18221;38.704;0.152;2022-09-03T00:39:32;10.80;;;3.37;;
10174;SDS011;18221;38.704;0.152;2022-09-03T00:42:07;13.83;;;3.70;;
10174;SDS011;18221;38.704;0.152;2022-09-03T00:44:56;9.80;;;3.50;;
10174;SDS011;18221;38.704;0.152;2022-09-03T00:48:01;10.17;;;3.70;;
10174;SDS011;18221;38.704;0.152;2022-09-03T00:50:44;9.60;;;3.03;;
10174;SDS011;18221;38.704;0.152;2022-09-03T00:53:33;8.67;;;3.10;;
10174;SDS011;18221;38.704;0.152;2022-09-03T00:56:12;7.23;;;3.03;;
10174;SDS011;18221;38.704;0.152;2022-09-03T00:58:57;10.50;;;3.27;;
10174;SDS011;18221;38.704;0.152;2022-09-03T01:01:49;10.27;;;3.50;;
10174;SDS011;18221;38.704;0.152;2022-09-03T01:04:36;9.87;;;3.40;;
10174;SDS011;18221;38.704;0.152;2022-09-03T01:07:19;11.93;;;3.47;;
10174;SDS011;18221;38.704;0.152;2022-09-03T01:10:04;8.83;;;3.20;;
10174;SDS011;18221;38.704;0.152;2022-09-03T01:12:47;9.40;;;2.97;;
10174;SDS011;18221;38.704;0.152;2022-09-03T01:15:30;9.93;;;2.90;;
10174;SDS011;18221;38.704;0.152;2022-09-03T01:18:18;9.23;;;3.20;;
10174;SDS011;18221;38.704;0.152;2022-09-03T01:20:58;11.73;;;3.47;;
10174;SDS011;18221;38.704;0.152;2022-09-03T01:23:56;5.57;;;2.93;;
10174;SDS011;18221;38.704;0.152;2022-09-03T01:27:01;7.20;;;2.37;;
10174;SDS011;18221;38.704;0.152;2022-09-03T01:29:50;5.90;;;2.20;;
10174;SDS011;18221;38.704;0.152;2022-09-03T01:32:29;7.00;;;2.50;;
10174;SDS011;18221;38.704;0.152;2022-09-03T01:35:11;7.83;;;2.40;;
10174;SDS011;18221;38.704;0.152;2022-09-03T01:37:53;3.13;;;2.10;;
10174;SDS011;18221;38.704;0.152;2022-09-03T01:40:36;6.57;;;2.10;;
10174;SDS011;18221;38.704;0.152;2022-09-03T01:43:23;6.90;;;2.30;;
10174;SDS011;18221;38.704;0.152;2022-09-03T01:46:08;4.53;;;1.87;;
10174;SDS011;18221;38.704;0.152;2022-09-03T01:48:47;5.60;;;1.83;;
10174;SDS011;18221;38.704;0.152;2022-09-03T01:51:27;9.07;;;2.10;;
10174;SDS011;18221;38.704;0.152;2022-09-03T01:54:19;3.57;;;2.10;;
10174;SDS011;18221;38.704;0.152;2022-09-03T01:57:25;8.63;;;2.23;;
10174;SDS011;18221;38.704;0.152;2022-09-03T02:00:09;7.07;;;2.20;;
10174;SDS011;18221;38.704;0.152;2022-09-03T02:02:43;5.47;;;1.73;;
10174;SDS011;18221;38.704;0.152;2022-09-03T02:05:14;5.87;;;2.23;;
10174;SDS011;18221;38.704;0.152;2022-09-03T02:07:46;7.27;;;1.97;;
10174;SDS011;18221;38.704;0.152;2022-09-03T02:10:17;4.73;;;2.00;;
10174;SDS011;18221;38.704;0.152;2022-09-03T02:12:55;4.07;;;1.77;;
10174;SDS011;18221;38.704;0.152;2022-09-03T02:15:27;4.53;;;1.90;;
10174;SDS011;18221;38.704;0.152;2022-09-03T02:18:00;5.23;;;2.00;;
10174;SDS011;18221;38.704;0.152;2022-09-03T02:20:32;3.47;;;1.83;;
10174;SDS011;18221;38.704;0.152;2022-09-03T02:23:00;7.67;;;2.10;;
10174;SDS011;18221;38.704;0.152;2022-09-03T02:25:31;6.77;;;2.40;;
10174;SDS011;18221;38.704;0.152;2022-09-03T02:28:03;7.87;;;2.30;;
10174;SDS011;18221;38.704;0.152;2022-09-03T02:30:33;5.47;;;2.23;;
10174;SDS011;18221;38.704;0.152;2022-09-03T02:33:02;4.93;;;2.00;;
10174;SDS011;18221;38.704;0.152;2022-09-03T02:35:30;6.30;;;2.50;;
10174;SDS011;18221;38.704;0.152;2022-09-03T02:38:07;6.63;;;2.23;;
10174;SDS011;18221;38.704;0.152;2022-09-03T02:40:37;6.23;;;2.17;;
10174;SDS011;18221;38.704;0.152;2022-09-03T02:43:06;3.87;;;2.27;;
10174;SDS011;18221;38.704;0.152;2022-09-03T02:45:40;5.23;;;2.17;;
10174;SDS011;18221;38.704;0.152;2022-09-03T02:48:15;6.33;;;2.20;;
10174;SDS011;18221;38.704;0.152;2022-09-03T02:50:48;3.93;;;2.07;;
10174;SDS011;18221;38.704;0.152;2022-09-03T02:53:16;4.70;;;1.80;;
10174;SDS011;18221;38.704;0.152;2022-09-03T02:55:45;7.90;;;2.10;;
10174;SDS011;18221;38.704;0.152;2022-09-03T02:58:13;4.70;;;1.90;;
10174;SDS011;18221;38.704;0.152;2022-09-03T03:00:41;6.03;;;1.83;;
10174;SDS011;18221;38.704;0.152;2022-09-03T03:03:09;5.97;;;1.80;;
10174;SDS011;18221;38.704;0.152;2022-09-03T03:05:40;5.13;;;1.83;;
10174;SDS011;18221;38.704;0.152;2022-09-03T03:08:12;4.40;;;1.77;;
10174;SDS011;18221;38.704;0.152;2022-09-03T03:10:41;2.50;;;1.63;;
10174;SDS011;18221;38.704;0.152;2022-09-03T03:13:10;5.03;;;2.17;;
10174;SDS011;18221;38.704;0.152;2022-09-03T03:15:39;2.80;;;1.40;;
10174;SDS011;18221;38.704;0.152;2022-09-03T03:18:07;5.03;;;1.80;;
10174;SDS011;18221;38.704;0.152;2022-09-03T03:20:36;2.90;;;1.67;;
10174;SDS011;18221;38.704;0.152;2022-09-03T03:23:06;5.00;;;1.80;;
10174;SDS011;18221;38.704;0.152;2022-09-03T03:25:36;5.33;;;1.60;;
10174;SDS011;18221;38.704;0.152;2022-09-03T03:28:05;4.67;;;1.77;;
10174;SDS011;18221;38.704;0.152;2022-09-03T03:30:35;4.67;;;1.80;;
10174;SDS011;18221;38.704;0.152;2022-09-03T03:33:06;4.10;;;1.50;;
10174;SDS011;18221;38.704;0.152;2022-09-03T03:35:35;2.97;;;1.52;;
10174;SDS011;18221;38.704;0.152;2022-09-03T03:38:06;3.93;;;1.50;;
10174;SDS011;18221;38.704;0.152;2022-09-03T03:40:34;5.00;;;1.53;;
10174;SDS011;18221;38.704;0.152;2022-09-03T03:43:04;3.67;;;1.83;;
10174;SDS011;18221;38.704;0.152;2022-09-03T03:45:32;5.38;;;1.60;;
10174;SDS011;18221;38.704;0.152;2022-09-03T03:47:59;4.67;;;1.40;;
10174;SDS011;18221;38.704;0.152;2022-09-03T03:50:28;1.50;;;1.30;;
10174;SDS011;18221;38.704;0.152;2022-09-03T03:52:58;2.07;;;1.30;;
10174;SDS011;18221;38.704;0.152;2022-09-03T03:55:27;3.22;;;1.40;;
10174;SDS011;18221;38.704;0.152;2022-09-03T03:57:57;3.38;;;1.30;;
10174;SDS011;18221;38.704;0.152;2022-09-03T04:00:25;2.97;;;1.20;;
10174;SDS011;18221;38.704;0.152;2022-09-03T04:02:53;2.83;;;1.52;;
10174;SDS011;18221;38.704;0.152;2022-09-03T04:05:21;2.75;;;1.40;;
10174;SDS011;18221;38.704;0.152;2022-09-03T04:07:48;4.80;;;1.40;;
10174;SDS011;18221;38.704;0.152;2022-09-03T04:10:16;2.00;;;1.40;;
10174;SDS011;18221;38.704;0.152;2022-09-03T04:12:46;5.82;;;2.00;;
10174;SDS011;18221;38.704;0.152;2022-09-03T04:15:13;4.95;;;1.70;;
10174;SDS011;18221;38.704;0.152;2022-09-03T04:17:42;3.28;;;1.70;;
10174;SDS011;18221;38.704;0.152;2022-09-03T04:20:10;4.97;;;1.63;;
10174;SDS011;18221;38.704;0.152;2022-09-03T04:22:38;5.63;;;1.60;;
10174;SDS011;18221;38.704;0.152;2022-09-03T04:25:06;4.93;;;1.40;;
10174;SDS011;18221;38.704;0.152;2022-09-03T04:27:34;2.87;;;1.20;;
10174;SDS011;18221;38.704;0.152;2022-09-03T04:30:04;3.67;;;1.40;;
10174;SDS011;18221;38.704;0.152;2022-09-03T04:32:34;2.40;;;1.23;;
10174;SDS011;18221;38.704;0.152;2022-09-03T04:35:20;2.30;;;1.23;;
10174;SDS011;18221;38.704;0.152;2022-09-03T04:37:51;2.63;;;1.10;;
10174;SDS011;18221;38.704;0.152;2022-09-03T04:40:20;2.10;;;1.20;;
10174;SDS011;18221;38.704;0.152;2022-09-03T04:42:48;2.22;;;1.40;;
10174;SDS011;18221;38.704;0.152;2022-09-03T04:45:18;1.55;;;1.00;;
10174;SDS011;18221;38.704;0.152;2022-09-03T04:47:54;2.25;;;1.20;;
10174;SDS011;18221;38.704;0.152;2022-09-03T04:50:24;5.30;;;1.52;;
10174;SDS011;18221;38.704;0.152;2022-09-03T04:52:53;3.50;;;1.33;;
10174;SDS011;18221;38.704;0.152;2022-09-03T04:55:23;3.73;;;1.30;;
10174;SDS011;18221;38.704;0.152;2022-09-03T04:57:51;2.00;;;1.20;;
10174;SDS011;18221;38.704;0.152;2022-09-03T05:00:21;3.00;;;1.42;;
10174;SDS011;18221;38.704;0.152;2022-09-03T05:02:49;5.13;;;1.40;;
10174;SDS011;18221;38.704;0.152;2022-09-03T05:05:17;1.80;;;1.30;;
10174;SDS011;18221;38.704;0.152;2022-09-03T05:07:45;4.57;;;1.50;;
10174;SDS011;18221;38.704;0.152;2022-09-03T05:10:14;3.03;;;1.50;;
10174;SDS011;18221;38.704;0.152;2022-09-03T05:12:44;4.10;;;1.47;;
10174;SDS011;18221;38.704;0.152;2022-09-03T05:15:14;4.63;;;1.70;;
10174;SDS011;18221;38.704;0.152;2022-09-03T05:17:43;3.97;;;1.50;;
10174;SDS011;18221;38.704;0.152;2022-09-03T05:20:11;3.00;;;1.23;;
10174;SDS011;18221;38.704;0.152;2022-09-03T05:22:40;2.20;;;1.50;;
10174;SDS011;18221;38.704;0.152;2022-09-03T05:25:08;3.47;;;1.50;;
10174;SDS011;18221;38.704;0.152;2022-09-03T05:27:36;3.10;;;1.20;;
10174;SDS011;18221;38.704;0.152;2022-09-03T05:30:04;3.97;;;1.47;;
10174;SDS011;18221;38.704;0.152;2022-09-03T05:32:33;1.93;;;1.33;;
10174;SDS011;18221;38.704;0.152;2022-09-03T05:35:03;2.37;;;1.30;;
10174;SDS011;18221;38.704;0.152;2022-09-03T05:37:32;3.40;;;1.40;;
10174;SDS011;18221;38.704;0.152;2022-09-03T05:40:00;2.03;;;1.57;;
10174;SDS011;18221;38.704;0.152;2022-09-03T05:42:29;2.13;;;1.40;;
10174;SDS011;18221;38.704;0.152;2022-09-03T05:45:03;4.53;;;1.50;;
10174;SDS011;18221;38.704;0.152;2022-09-03T05:47:35;4.07;;;1.40;;
10174;SDS011;18221;38.704;0.152;2022-09-03T05:50:07;2.10;;;1.50;;
10174;SDS011;18221;38.704;0.152;2022-09-03T05:52:35;3.93;;;1.50;;
10174;SDS011;18221;38.704;0.152;2022-09-03T05:55:03;2.83;;;1.60;;
10174;SDS011;18221;38.704;0.152;2022-09-03T05:57:32;2.33;;;1.33;;
10174;SDS011;18221;38.704;0.152;2022-09-03T06:00:01;2.73;;;1.50;;
10174;SDS011;18221;38.704;0.152;2022-09-03T06:02:29;2.60;;;1.53;;
10174;SDS011;18221;38.704;0.152;2022-09-03T06:04:57;5.07;;;1.47;;
10174;SDS011;18221;38.704;0.152;2022-09-03T06:07:27;2.50;;;1.60;;
10174;SDS011;18221;38.704;0.152;2022-09-03T06:09:55;3.00;;;1.67;;
10174;SDS011;18221;38.704;0.152;2022-09-03T06:12:23;3.30;;;1.60;;
10174;SDS011;18221;38.704;0.152;2022-09-03T06:14:51;3.83;;;1.53;;
10174;SDS011;18221;38.704;0.152;2022-09-03T06:17:19;2.60;;;1.63;;
10174;SDS011;18221;38.704;0.152;2022-09-03T06:19:47;2.53;;;1.47;;
10174;SDS011;18221;38.704;0.152;2022-09-03T06:22:14;2.53;;;1.60;;
10174;SDS011;18221;38.704;0.152;2022-09-03T06:24:44;1.80;;;1.63;;
10174;SDS011;18221;38.704;0.152;2022-09-03T06:27:12;2.90;;;1.57;;
10174;SDS011;18221;38.704;0.152;2022-09-03T06:29:39;1.70;;;1.40;;
10174;SDS011;18221;38.704;0.152;2022-09-03T06:32:09;2.07;;;1.60;;
10174;SDS011;18221;38.704;0.152;2022-09-03T06:34:36;6.47;;;1.70;;
10174;SDS011;18221;38.704;0.152;2022-09-03T06:37:04;2.27;;;1.30;;
10174;SDS011;18221;38.704;0.152;2022-09-03T06:39:32;2.73;;;1.50;;
10174;SDS011;18221;38.704;0.152;2022-09-03T06:42:02;2.77;;;1.40;;
10174;SDS011;18221;38.704;0.152;2022-09-03T06:44:30;1.93;;;1.40;;
10174;SDS011;18221;38.704;0.152;2022-09-03T06:46:58;2.37;;;1.30;;
10174;SDS011;18221;38.704;0.152;2022-09-03T06:49:25;3.17;;;1.40;;
10174;SDS011;18221;38.704;0.152;2022-09-03T06:51:55;2.60;;;1.40;;
10174;SDS011;18221;38.704;0.152;2022-09-03T06:54:23;3.37;;;1.30;;
10174;SDS011;18221;38.704;0.152;2022-09-03T06:56:51;4.10;;;1.67;;
10174;SDS011;18221;38.704;0.152;2022-09-03T06:59:21;2.67;;;1.30;;
10174;SDS011;18221;38.704;0.152;2022-09-03T07:01:48;1.73;;;1.30;;
10174;SDS011;18221;38.704;0.152;2022-09-03T07:04:16;2.80;;;1.40;;
10174;SDS011;18221;38.704;0.152;2022-09-03T07:06:44;3.83;;;1.50;;
10174;SDS011;18221;38.704;0.152;2022-09-03T07:09:13;3.00;;;1.40;;
10174;SDS011;18221;38.704;0.152;2022-09-03T07:11:43;4.17;;;1.50;;
10174;SDS011;18221;38.704;0.152;2022-09-03T07:14:14;4.23;;;1.73;;
10174;SDS011;18221;38.704;0.152;2022-09-03T07:16:46;2.65;;;1.40;;
10174;SDS011;18221;38.704;0.152;2022-09-03T07:19:15;2.10;;;1.40;;
10174;SDS011;18221;38.704;0.152;2022-09-03T07:21:44;3.28;;;1.50;;
10174;SDS011;18221;38.704;0.152;2022-09-03T07:24:12;2.42;;;1.40;;
10174;SDS011;18221;38.704;0.152;2022-09-03T07:26:40;1.63;;;1.35;;
10174;SDS011;18221;38.704;0.152;2022-09-03T07:29:10;3.70;;;1.63;;
10174;SDS011;18221;38.704;0.152;2022-09-03T07:31:40;2.47;;;1.50;;
10174;SDS011;18221;38.704;0.152;2022-09-03T07:34:11;1.65;;;1.52;;
10174;SDS011;18221;38.704;0.152;2022-09-03T07:36:41;3.00;;;1.52;;
10174;SDS011;18221;38.704;0.152;2022-09-03T07:39:11;1.95;;;1.50;;
10174;SDS011;18221;38.704;0.152;2022-09-03T07:41:41;2.05;;;1.50;;
10174;SDS011;18221;38.704;0.152;2022-09-03T07:44:10;2.45;;;1.40;;
10174;SDS011;18221;38.704;0.152;2022-09-03T07:46:39;1.85;;;1.50;;
10174;SDS011;18221;38.704;0.152;2022-09-03T07:49:11;2.58;;;1.60;;
10174;SDS011;18221;38.704;0.152;2022-09-03T07:51:39;2.53;;;1.40;;
10174;SDS011;18221;38.704;0.152;2022-09-03T07:54:07;1.52;;;1.40;;
10174;SDS011;18221;38.704;0.152;2022-09-03T07:56:37;2.92;;;1.50;;
10174;SDS011;18221;38.704;0.152;2022-09-03T07:59:06;2.72;;;1.50;;
10174;SDS011;18221;38.704;0.152;2022-09-03T08:01:36;2.72;;;1.70;;
10174;SDS011;18221;38.704;0.152;2022-09-03T08:04:05;4.10;;;1.58;;
10174;SDS011;18221;38.704;0.152;2022-09-03T08:06:34;2.75;;;1.65;;
10174;SDS011;18221;38.704;0.152;2022-09-03T08:09:04;2.30;;;1.48;;
10174;SDS011;18221;38.704;0.152;2022-09-03T08:11:35;3.13;;;1.70;;
10174;SDS011;18221;38.704;0.152;2022-09-03T08:14:08;3.80;;;1.50;;
10174;SDS011;18221;38.704;0.152;2022-09-03T08:16:38;3.10;;;1.60;;
10174;SDS011;18221;38.704;0.152;2022-09-03T08:19:08;3.78;;;1.80;;
10174;SDS011;18221;38.704;0.152;2022-09-03T08:21:39;3.58;;;1.73;;
10174;SDS011;18221;38.704;0.152;2022-09-03T08:24:07;2.70;;;1.83;;
10174;SDS011;18221;38.704;0.152;2022-09-03T08:26:36;3.00;;;1.88;;
10174;SDS011;18221;38.704;0.152;2022-09-03T08:29:07;3.15;;;1.70;;
10174;SDS011;18221;38.704;0.152;2022-09-03T08:31:35;2.63;;;1.48;;
10174;SDS011;18221;38.704;0.152;2022-09-03T08:34:04;2.15;;;1.52;;
10174;SDS011;18221;38.704;0.152;2022-09-03T08:36:36;5.95;;;1.77;;
10174;SDS011;18221;38.704;0.152;2022-09-03T08:39:07;1.98;;;1.48;;
10174;SDS011;18221;38.704;0.152;2022-09-03T08:41:43;7.07;;;2.35;;
10174;SDS011;18221;38.704;0.152;2022-09-03T08:44:47;6.25;;;2.40;;
10174;SDS011;18221;38.704;0.152;2022-09-03T08:47:20;6.97;;;2.30;;
10174;SDS011;18221;38.704;0.152;2022-09-03T08:49:56;6.53;;;2.70;;
10174;SDS011;18221;38.704;0.152;2022-09-03T08:52:32;6.45;;;2.55;;
10174;SDS011;18221;38.704;0.152;2022-09-03T08:55:15;5.68;;;2.28;;
10174;SDS011;18221;38.704;0.152;2022-09-03T08:57:52;3.95;;;2.10;;
10174;SDS011;18221;38.704;0.152;2022-09-03T09:00:29;3.42;;;1.80;;
10174;SDS011;18221;38.704;0.152;2022-09-03T09:03:25;2.70;;;1.85;;
10174;SDS011;18221;38.704;0.152;2022-09-03T09:06:16;2.53;;;1.60;;
10174;SDS011;18221;38.704;0.152;2022-09-03T09:08:58;3.22;;;1.95;;
10174;SDS011;18221;38.704;0.152;2022-09-03T09:11:49;4.75;;;1.75;;
10174;SDS011;18221;38.704;0.152;2022-09-03T09:14:37;2.83;;;1.70;;
10174;SDS011;18221;38.704;0.152;2022-09-03T09:17:21;3.30;;;1.60;;
10174;SDS011;18221;38.704;0.152;2022-09-03T09:20:17;3.53;;;1.90;;
10174;SDS011;18221;38.704;0.152;2022-09-03T09:22:55;3.00;;;1.77;;
10174;SDS011;18221;38.704;0.152;2022-09-03T09:25:32;4.13;;;1.63;;
10174;SDS011;18221;38.704;0.152;2022-09-03T09:28:11;2.42;;;1.77;;
10174;SDS011;18221;38.704;0.152;2022-09-03T09:30:44;2.00;;;1.60;;
10174;SDS011;18221;38.704;0.152;2022-09-03T09:33:16;2.00;;;1.67;;
10174;SDS011;18221;38.704;0.152;2022-09-03T09:35:45;6.70;;;1.90;;
10174;SDS011;18221;38.704;0.152;2022-09-03T09:38:14;4.93;;;1.65;;
10174;SDS011;18221;38.704;0.152;2022-09-03T09:41:06;4.55;;;2.10;;
10174;SDS011;18221;38.704;0.152;2022-09-03T09:43:36;2.78;;;1.70;;
10174;SDS011;18221;38.704;0.152;2022-09-03T09:46:05;3.05;;;1.88;;
10174;SDS011;18221;38.704;0.152;2022-09-03T09:48:42;3.42;;;1.88;;
10174;SDS011;18221;38.704;0.152;2022-09-03T09:51:18;6.47;;;2.22;;
10174;SDS011;18221;38.704;0.152;2022-09-03T09:53:58;5.78;;;2.10;;
10174;SDS011;18221;38.704;0.152;2022-09-03T09:56:29;5.95;;;1.90;;
10174;SDS011;18221;38.704;0.152;2022-09-03T09:59:01;2.90;;;1.83;;
10174;SDS011;18221;38.704;0.152;2022-09-03T10:01:31;4.13;;;1.87;;
10174;SDS011;18221;38.704;0.152;2022-09-03T10:04:00;5.47;;;2.50;;
10174;SDS011;18221;38.704;0.152;2022-09-03T10:06:36;8.88;;;3.38;;
10174;SDS011;18221;38.704;0.152;2022-09-03T10:09:22;5.68;;;2.90;;
10174;SDS011;18221;38.704;0.152;2022-09-03T10:11:57;5.75;;;2.78;;
10174;SDS011;18221;38.704;0.152;2022-09-03T10:14:40;6.32;;;2.90;;
10174;SDS011;18221;38.704;0.152;2022-09-03T10:17:19;6.25;;;3.28;;
10174;SDS011;18221;38.704;0.152;2022-09-03T10:19:57;5.50;;;2.10;;
10174;SDS011;18221;38.704;0.152;2022-09-03T10:22:52;7.22;;;2.70;;
10174;SDS011;18221;38.704;0.152;2022-09-03T10:25:26;9.15;;;2.72;;
10174;SDS011;18221;38.704;0.152;2022-09-03T10:28:07;5.70;;;2.83;;
10174;SDS011;18221;38.704;0.152;2022-09-03T10:30:41;7.38;;;3.28;;
10174;SDS011;18221;38.704;0.152;2022-09-03T10:33:51;7.15;;;2.95;;
10174;SDS011;18221;38.704;0.152;2022-09-03T10:36:27;6.68;;;2.67;;
10174;SDS011;18221;38.704;0.152;2022-09-03T10:39:08;5.78;;;2.35;;
10174;SDS011;18221;38.704;0.152;2022-09-03T10:41:50;5.32;;;2.20;;
10174;SDS011;18221;38.704;0.152;2022-09-03T10:44:47;7.95;;;2.35;;
10174;SDS011;18221;38.704;0.152;2022-09-03T10:47:43;4.38;;;2.28;;
10174;SDS011;18221;38.704;0.152;2022-09-03T10:50:57;3.45;;;2.00;;
10174;SDS011;18221;38.704;0.152;2022-09-03T10:53:38;2.45;;;1.60;;
10174;SDS011;18221;38.704;0.152;2022-09-03T10:56:21;3.47;;;1.88;;
10174;SDS011;18221;38.704;0.152;2022-09-03T10:59:04;3.15;;;1.75;;
10174;SDS011;18221;38.704;0.152;2022-09-03T11:02:02;6.68;;;2.55;;
10174;SDS011;18221;38.704;0.152;2022-09-03T11:04:51;7.60;;;2.80;;
10174;SDS011;18221;38.704;0.152;2022-09-03T11:07:28;7.65;;;2.67;;
10174;SDS011;18221;38.704;0.152;2022-09-03T11:10:06;7.30;;;2.53;;
10174;SDS011;18221;38.704;0.152;2022-09-03T11:12:44;5.60;;;2.67;;
10174;SDS011;18221;38.704;0.152;2022-09-03T11:15:22;5.88;;;2.60;;
10174;SDS011;18221;38.704;0.152;2022-09-03T11:18:00;7.03;;;2.90;;
10174;SDS011;18221;38.704;0.152;2022-09-03T11:20:39;4.07;;;2.35;;
10174;SDS011;18221;38.704;0.152;2022-09-03T11:23:08;6.10;;;2.40;;
10174;SDS011;18221;38.704;0.152;2022-09-03T11:25:40;6.95;;;2.75;;
10174;SDS011;18221;38.704;0.152;2022-09-03T11:28:17;5.25;;;2.63;;
10174;SDS011;18221;38.704;0.152;2022-09-03T11:31:11;6.57;;;2.78;;
10174;SDS011;18221;38.704;0.152;2022-09-03T11:33:52;5.50;;;2.13;;
10174;SDS011;18221;38.704;0.152;2022-09-03T11:36:28;9.07;;;2.58;;
10174;SDS011;18221;38.704;0.152;2022-09-03T11:38:58;6.50;;;2.60;;
10174;SDS011;18221;38.704;0.152;2022-09-03T11:41:27;5.75;;;2.55;;
10174;SDS011;18221;38.704;0.152;2022-09-03T11:44:10;5.28;;;2.47;;
10174;SDS011;18221;38.704;0.152;2022-09-03T11:46:53;6.28;;;2.30;;
10174;SDS011;18221;38.704;0.152;2022-09-03T11:49:29;7.13;;;2.50;;
10174;SDS011;18221;38.704;0.152;2022-09-03T11:51:59;7.32;;;2.20;;
10174;SDS011;18221;38.704;0.152;2022-09-03T11:54:30;3.20;;;2.20;;
10174;SDS011;18221;38.704;0.152;2022-09-03T11:57:09;8.07;;;3.40;;
10174;SDS011;18221;38.704;0.152;2022-09-03T11:59:40;5.75;;;2.85;;
10174;SDS011;18221;38.704;0.152;2022-09-03T12:02:13;6.35;;;2.85;;
10174;SDS011;18221;38.704;0.152;2022-09-03T12:04:58;8.98;;;3.25;;
10174;SDS011;18221;38.704;0.152;2022-09-03T12:07:48;12.13;;;3.63;;
10174;SDS011;18221;38.704;0.152;2022-09-03T12:11:05;11.32;;;4.13;;
10174;SDS011;18221;38.704;0.152;2022-09-03T12:13:56;9.10;;;3.45;;
10174;SDS011;18221;38.704;0.152;2022-09-03T12:16:40;7.05;;;3.50;;
10174;SDS011;18221;38.704;0.152;2022-09-03T12:19:35;7.20;;;3.53;;
10174;SDS011;18221;38.704;0.152;2022-09-03T12:22:13;7.97;;;3.28;;
10174;SDS011;18221;38.704;0.152;2022-09-03T12:24:43;10.90;;;4.03;;
10174;SDS011;18221;38.704;0.152;2022-09-03T12:27:14;9.73;;;3.55;;
10174;SDS011;18221;38.704;0.152;2022-09-03T12:29:52;9.43;;;3.67;;
10174;SDS011;18221;38.704;0.152;2022-09-03T12:32:24;7.93;;;3.33;;
10174;SDS011;18221;38.704;0.152;2022-09-03T12:34:56;5.82;;;3.25;;
10174;SDS011;18221;38.704;0.152;2022-09-03T12:37:36;9.38;;;3.85;;
10174;SDS011;18221;38.704;0.152;2022-09-03T12:40:05;8.52;;;3.38;;
10174;SDS011;18221;38.704;0.152;2022-09-03T12:42:45;7.70;;;3.50;;
10174;SDS011;18221;38.704;0.152;2022-09-03T12:45:14;9.98;;;3.60;;
10174;SDS011;18221;38.704;0.152;2022-09-03T12:47:47;10.40;;;4.20;;
10174;SDS011;18221;38.704;0.152;2022-09-03T12:50:16;8.18;;;3.28;;
10174;SDS011;18221;38.704;0.152;2022-09-03T12:52:49;9.30;;;3.55;;
10174;SDS011;18221;38.704;0.152;2022-09-03T12:55:28;8.40;;;3.75;;
10174;SDS011;18221;38.704;0.152;2022-09-03T12:58:03;8.80;;;3.50;;
10174;SDS011;18221;38.704;0.152;2022-09-03T13:00:38;9.40;;;3.60;;
10174;SDS011;18221;38.704;0.152;2022-09-03T13:03:13;8.15;;;3.95;;
10174;SDS011;18221;38.704;0.152;2022-09-03T13:05:49;9.80;;;3.90;;
10174;SDS011;18221;38.704;0.152;2022-09-03T13:08:23;7.63;;;3.30;;
10174;SDS011;18221;38.704;0.152;2022-09-03T13:10:56;10.07;;;3.70;;
10174;SDS011;18221;38.704;0.152;2022-09-03T13:13:30;10.05;;;3.38;;
10174;SDS011;18221;38.704;0.152;2022-09-03T13:19:20;11.20;;;3.75;;
10174;SDS011;18221;38.704;0.152;2022-09-03T13:22:02;6.22;;;3.47;;
10174;SDS011;18221;38.704;0.152;2022-09-03T13:24:54;8.63;;;3.75;;
10174;SDS011;18221;38.704;0.152;2022-09-03T13:27:43;7.15;;;3.60;;
10174;SDS011;18221;38.704;0.152;2022-09-03T13:30:28;9.30;;;3.80;;
10174;SDS011;18221;38.704;0.152;2022-09-03T13:33:04;5.03;;;3.50;;
10174;SDS011;18221;38.704;0.152;2022-09-03T13:35:46;9.82;;;3.55;;
10174;SDS011;18221;38.704;0.152;2022-09-03T13:38:27;9.65;;;3.80;;
10174;SDS011;18221;38.704;0.152;2022-09-03T13:41:08;12.10;;;3.75;;
10174;SDS011;18221;38.704;0.152;2022-09-03T13:43:46;9.52;;;4.05;;
10174;SDS011;18221;38.704;0.152;2022-09-03T13:46:26;7.72;;;4.20;;
10174;SDS011;18221;38.704;0.152;2022-09-03T13:49:07;9.52;;;4.30;;
10174;SDS011;18221;38.704;0.152;2022-09-03T13:52:07;9.98;;;4.20;;
10174;SDS011;18221;38.704;0.152;2022-09-03T13:54:48;11.88;;;4.38;;
10174;SDS011;18221;38.704;0.152;2022-09-03T13:57:26;10.63;;;4.47;;
10174;SDS011;18221;38.704;0.152;2022-09-03T14:00:04;11.88;;;4.63;;
10174;SDS011;18221;38.704;0.152;2022-09-03T14:05:33;9.93;;;4.35;;
10174;SDS011;18221;38.704;0.152;2022-09-03T14:08:19;7.47;;;4.40;;
10174;SDS011;18221;38.704;0.152;2022-09-03T14:10:59;14.20;;;5.00;;
10174;SDS011;18221;38.704;0.152;2022-09-03T14:13:49;9.13;;;4.60;;
10174;SDS011;18221;38.704;0.152;2022-09-03T14:16:37;9.18;;;4.55;;
10174;SDS011;18221;38.704;0.152;2022-09-03T14:19:14;10.27;;;4.60;;
10174;SDS011;18221;38.704;0.152;2022-09-03T14:21:55;6.75;;;3.70;;
10174;SDS011;18221;38.704;0.152;2022-09-03T14:24:35;12.55;;;4.40;;
10174;SDS011;18221;38.704;0.152;2022-09-03T14:27:21;9.70;;;4.72;;
10174;SDS011;18221;38.704;0.152;2022-09-03T14:29:57;11.38;;;4.47;;
10174;SDS011;18221;38.704;0.152;2022-09-03T14:32:30;11.68;;;4.07;;
10174;SDS011;18221;38.704;0.152;2022-09-03T14:35:20;13.38;;;4.20;;
10174;SDS011;18221;38.704;0.152;2022-09-03T14:38:13;8.13;;;3.90;;
10174;SDS011;18221;38.704;0.152;2022-09-03T14:41:04;9.15;;;4.00;;
10174;SDS011;18221;38.704;0.152;2022-09-03T14:43:55;10.13;;;3.22;;
10174;SDS011;18221;38.704;0.152;2022-09-03T14:46:49;9.98;;;3.97;;
10174;SDS011;18221;38.704;0.152;2022-09-03T14:52:34;8.68;;;3.50;;
10174;SDS011;18221;38.704;0.152;2022-09-03T14:55:49;6.70;;;2.90;;
10174;SDS011;18221;38.704;0.152;2022-09-03T14:58:39;6.93;;;3.33;;
10174;SDS011;18221;38.704;0.152;2022-09-03T15:01:28;7.13;;;2.85;;
10174;SDS011;18221;38.704;0.152;2022-09-03T15:07:16;9.73;;;3.85;;
10174;SDS011;18221;38.704;0.152;2022-09-03T15:09:59;7.75;;;3.45;;
10174;SDS011;18221;38.704;0.152;2022-09-03T15:12:42;7.93;;;3.35;;
10174;SDS011;18221;38.704;0.152;2022-09-03T15:15:17;4.70;;;2.83;;
10174;SDS011;18221;38.704;0.152;2022-09-03T15:17:59;6.10;;;2.78;;
10174;SDS011;18221;38.704;0.152;2022-09-03T15:20:47;9.25;;;2.88;;
10174;SDS011;18221;38.704;0.152;2022-09-03T15:26:29;8.80;;;2.65;;
10174;SDS011;18221;38.704;0.152;2022-09-03T15:29:23;4.78;;;2.30;;
10174;SDS011;18221;38.704;0.152;2022-09-03T15:32:16;4.00;;;2.40;;
10174;SDS011;18221;38.704;0.152;2022-09-03T15:35:12;7.72;;;2.90;;
10174;SDS011;18221;38.704;0.152;2022-09-03T15:38:04;5.15;;;2.30;;
10174;SDS011;18221;38.704;0.152;2022-09-03T15:40:48;7.72;;;2.67;;
10174;SDS011;18221;38.704;0.152;2022-09-03T15:43:22;4.28;;;2.08;;
10174;SDS011;18221;38.704;0.152;2022-09-03T15:45:57;4.78;;;2.38;;
10174;SDS011;18221;38.704;0.152;2022-09-03T15:48:37;6.00;;;2.60;;
10174;SDS011;18221;38.704;0.152;2022-09-03T15:51:16;7.53;;;2.70;;
10174;SDS011;18221;38.704;0.152;2022-09-03T15:53:55;4.30;;;2.45;;
10174;SDS011;18221;38.704;0.152;2022-09-03T15:56:30;6.93;;;2.65;;
10174;SDS011;18221;38.704;0.152;2022-09-03T15:59:10;4.30;;;2.22;;
10174;SDS011;18221;38.704;0.152;2022-09-03T16:01:46;7.65;;;2.45;;